Map

Track Data

SID SEASON NUMBER BASIN SUBBASIN NAME ISO_TIME NATURE LAT LON WMO_WIND WMO_PRES WMO_AGENCY TRACK_TYPE DIST2LAND LANDFALL IFLAG USA_AGENCY USA_ATCF_ID USA_LAT USA_LON USA_RECORD USA_STATUS USA_WIND USA_PRES USA_SSHS USA_R34_NE USA_R34_SE USA_R34_SW USA_R34_NW USA_R50_NE USA_R50_SE USA_R50_SW USA_R50_NW USA_R64_NE USA_R64_SE USA_R64_SW USA_R64_NW USA_POCI USA_ROCI USA_RMW USA_EYE TOKYO_LAT TOKYO_LON TOKYO_GRADE TOKYO_WIND TOKYO_PRES TOKYO_R50_DIR TOKYO_R50_LONG TOKYO_R50_SHORT TOKYO_R30_DIR TOKYO_R30_LONG TOKYO_R30_SHORT TOKYO_LAND CMA_LAT CMA_LON CMA_CAT CMA_WIND CMA_PRES HKO_LAT HKO_LON HKO_CAT HKO_WIND HKO_PRES NEWDELHI_LAT NEWDELHI_LON NEWDELHI_GRADE NEWDELHI_WIND NEWDELHI_PRES NEWDELHI_CI NEWDELHI_DP NEWDELHI_POCI REUNION_LAT REUNION_LON REUNION_TYPE REUNION_WIND REUNION_PRES REUNION_TNUM REUNION_CI REUNION_RMW REUNION_R34_NE REUNION_R34_SE REUNION_R34_SW REUNION_R34_NW REUNION_R50_NE REUNION_R50_SE REUNION_R50_SW REUNION_R50_NW REUNION_R64_NE REUNION_R64_SE REUNION_R64_SW REUNION_R64_NW BOM_LAT BOM_LON BOM_TYPE BOM_WIND BOM_PRES BOM_TNUM BOM_CI BOM_RMW BOM_R34_NE BOM_R34_SE BOM_R34_SW BOM_R34_NW BOM_R50_NE BOM_R50_SE BOM_R50_SW BOM_R50_NW BOM_R64_NE BOM_R64_SE BOM_R64_SW BOM_R64_NW BOM_ROCI BOM_POCI BOM_EYE BOM_POS_METHOD BOM_PRES_METHOD NADI_LAT NADI_LON NADI_CAT NADI_WIND NADI_PRES WELLINGTON_LAT WELLINGTON_LON WELLINGTON_WIND WELLINGTON_PRES DS824_LAT DS824_LON DS824_STAGE DS824_WIND DS824_PRES TD9636_LAT TD9636_LON TD9636_STAGE TD9636_WIND TD9636_PRES TD9635_LAT TD9635_LON TD9635_WIND TD9635_PRES TD9635_ROCI NEUMANN_LAT NEUMANN_LON NEUMANN_CLASS NEUMANN_WIND NEUMANN_PRES MLC_LAT MLC_LON MLC_CLASS MLC_WIND MLC_PRES USA_GUST BOM_GUST BOM_GUST_PER REUNION_GUST REUNION_GUST_PER USA_SEAHGT USA_SEARAD_NE USA_SEARAD_SE USA_SEARAD_SW USA_SEARAD_NW STORM_SPEED STORM_DIR
1897355S10063 1898 51 SI MM NOT_NAMED 1897-12-21 06:00:00 NR -10.4000 62.5000 reunion main 1201 1201 _____O________ -1 -10.4000 62.5000 99 9.90000 0 0
1897355S10063 1898 51 SI MM NOT_NAMED 1897-12-21 09:00:00 NR -10.4011 62.5108 main 1201 1201 _____P________ -1 -10.4011 62.5108 99 0 0
1897355S10063 1898 51 SI MM NOT_NAMED 1897-12-21 12:00:00 NR -10.4080 62.5111 main 1201 1201 _____P________ -1 -10.4080 62.5111 99 0 0
1897355S10063 1898 51 SI MM NOT_NAMED 1897-12-21 15:00:00 NR -10.4267 62.4903 main 1201 1186 _____P________ -1 -10.4267 62.4903 99 1 232
1897355S10063 1898 51 SI MM NOT_NAMED 1897-12-21 18:00:00 NR -10.4629 62.4379 main 1186 1186 _____P________ -1 -10.4629 62.4379 99 2 236
1897355S10063 1898 51 SI MM NOT_NAMED 1897-12-21 21:00:00 NR -10.5226 62.3433 main 1182 1167 _____P________ -1 -10.5226 62.3433 99 3 238
1897355S10063 1898 51 SI MM NOT_NAMED 1897-12-22 00:00:00 NR -10.6115 62.1959 main 1167 1148 _____P________ -1 -10.6115 62.1959 99 4 239
1897355S10063 1898 51 SI MM NOT_NAMED 1897-12-22 03:00:00 NR -10.7354 61.9851 main 1148 1115 _____P________ -1 -10.7354 61.9851 99 6 239
1897355S10063 1898 51 SI MM NOT_NAMED 1897-12-22 06:00:00 NR -10.9000 61.7000 reunion main 1115 1082 _____O________ -1 -10.9000 61.7000 99 9.90000 7 240
1897355S10063 1898 51 SI MM NOT_NAMED 1897-12-22 09:00:00 NR -11.1090 61.3340 main 1078 1042 _____P________ -1 -11.1090 61.3340 99 9 240
1897355S10063 1898 51 SI MM NOT_NAMED 1897-12-22 12:00:00 NR -11.3575 60.8973 main 1032 994 _____P________ -1 -11.3575 60.8973 99 11 240
1897355S10063 1898 51 SI MM NOT_NAMED 1897-12-22 15:00:00 NR -11.6387 60.4042 main 994 947 _____P________ -1 -11.6387 60.4042 99 12 240
1897355S10063 1898 51 SI MM NOT_NAMED 1897-12-22 18:00:00 NR -11.9457 59.8690 main 947 889 _____P________ -1 -11.9457 59.8690 99 13 239
1897355S10063 1898 51 SI MM NOT_NAMED 1897-12-22 21:00:00 NR -12.2720 59.3064 main 889 847 _____P________ -1 -12.2720 59.3064 99 13 239
1897355S10063 1898 51 SI MM NOT_NAMED 1897-12-23 00:00:00 NR -12.6107 58.7310 main 846 807 _____P________ -1 -12.6107 58.7310 99 13 239
1897355S10063 1898 51 SI MM NOT_NAMED 1897-12-23 03:00:00 NR -12.9555 58.1572 main 796 760 _____P________ -1 -12.9555 58.1572 99 13 238
1897355S10063 1898 51 SI MM NOT_NAMED 1897-12-23 06:00:00 NR -13.3000 57.6000 reunion main 760 728 _____O________ -1 -13.3000 57.6000 99 9.90000 12 237
1897355S10063 1898 51 SI MM NOT_NAMED 1897-12-23 09:00:00 NR -13.6267 57.0981 main 728 672 _____P________ -1 -13.6267 57.0981 99 12 236
1897355S10063 1898 51 SI MM NOT_NAMED 1897-12-23 12:00:00 NR -13.9594 56.6021 main 670 610 _____P________ -1 -13.9594 56.6021 99 12 235
1897355S10063 1898 51 SI MM NOT_NAMED 1897-12-23 15:00:00 NR -14.2947 56.1147 main 610 563 _____P________ -1 -14.2947 56.1147 99 12 234
1897355S10063 1898 51 SI MM NOT_NAMED 1897-12-23 18:00:00 NR -14.6295 55.6384 main 552 506 _____P________ -1 -14.6295 55.6384 99 11 234
1897355S10063 1898 51 SI MM NOT_NAMED 1897-12-23 21:00:00 NR -14.9605 55.1760 main 505 461 _____P________ -1 -14.9605 55.1760 99 11 233
1897355S10063 1898 51 SI MM NOT_NAMED 1897-12-24 00:00:00 NR -15.2848 54.7303 main 450 407 _____P________ -1 -15.2848 54.7303 99 11 233
1897355S10063 1898 51 SI MM NOT_NAMED 1897-12-24 03:00:00 NR -15.5990 54.3040 main 407 368 _____P________ -1 -15.5990 54.3040 99 10 232
1897355S10063 1898 51 SI MM NOT_NAMED 1897-12-24 06:00:00 NR -15.9000 53.9000 reunion main 368 333 _____O________ -1 -15.9000 53.9000 99 9.90000 10 233
1897355S10063 1898 51 SI MM NOT_NAMED 1897-12-24 09:00:00 NR -16.1849 53.4927 main 333 299 _____P________ -1 -16.1849 53.4927 99 9 234
1897355S10063 1898 51 SI MM NOT_NAMED 1897-12-24 12:00:00 NR -16.4583 53.1051 main 304 279 _____P________ -1 -16.4583 53.1051 99 9 233
1897355S10063 1898 51 SI MM NOT_NAMED 1897-12-24 15:00:00 NR -16.7211 52.7392 main 274 255 _____P________ -1 -16.7211 52.7392 99 9 233
1897355S10063 1898 51 SI MM NOT_NAMED 1897-12-24 18:00:00 NR -16.9739 52.3968 main 259 243 _____P________ -1 -16.9739 52.3968 99 8 232
1897355S10063 1898 51 SI MM NOT_NAMED 1897-12-24 21:00:00 NR -17.2175 52.0798 main 243 222 _____P________ -1 -17.2175 52.0798 99 8 230
1897355S10063 1898 51 SI MM NOT_NAMED 1897-12-25 00:00:00 NR -17.4526 51.7901 main 226 206 _____P________ -1 -17.4526 51.7901 99 7 229
1897355S10063 1898 51 SI MM NOT_NAMED 1897-12-25 03:00:00 NR -17.6798 51.5295 main 206 191 _____P________ -1 -17.6798 51.5295 99 6 226
1897355S10063 1898 51 SI MM NOT_NAMED 1897-12-25 06:00:00 NR -17.9000 51.3000 reunion main 191 172 _____O________ -1 -17.9000 51.3000 99 9.90000 6 224
1897355S10063 1898 51 SI MM NOT_NAMED 1897-12-25 09:00:00 NR -18.1198 51.0751 main 175 158 _____P________ -1 -18.1198 51.0751 99 6 223
1897355S10063 1898 51 SI MM NOT_NAMED 1897-12-25 12:00:00 NR -18.3317 50.8812 main 158 141 _____P________ -1 -18.3317 50.8812 99 5 219
1897355S10063 1898 51 SI MM NOT_NAMED 1897-12-25 15:00:00 NR -18.5367 50.7171 main 141 134 _____P________ -1 -18.5367 50.7171 99 5 215
1897355S10063 1898 51 SI MM NOT_NAMED 1897-12-25 18:00:00 NR -18.7361 50.5815 main 138 134 _____P________ -1 -18.7361 50.5815 99 5 210
1897355S10063 1898 51 SI MM NOT_NAMED 1897-12-25 21:00:00 NR -18.9311 50.4733 main 138 130 _____P________ -1 -18.9311 50.4733 99 4 205
1897355S10063 1898 51 SI MM NOT_NAMED 1897-12-26 00:00:00 NR -19.1226 50.3911 main 133 128 _____P________ -1 -19.1226 50.3911 99 4 199
1897355S10063 1898 51 SI MM NOT_NAMED 1897-12-26 03:00:00 NR -19.3119 50.3338 main 130 130 _____P________ -1 -19.3119 50.3338 99 4 193
1897355S10063 1898 51 SI MM NOT_NAMED 1897-12-26 06:00:00 NR -19.5000 50.3000 reunion main 137 137 _____O________ -1 -19.5000 50.3000 99 9.90000 4 193
1897355S10063 1898 51 SI MM NOT_NAMED 1897-12-26 09:00:00 NR -19.6612 50.2451 main 137 137 _____P________ -1 -19.6612 50.2451 99 3 194
1897355S10063 1898 51 SI MM NOT_NAMED 1897-12-26 12:00:00 NR -19.8165 50.2139 main 142 142 _____P________ -1 -19.8165 50.2139 99 3 187
1897355S10063 1898 51 SI MM NOT_NAMED 1897-12-26 15:00:00 NR -19.9727 50.2077 main 146 146 _____P________ -1 -19.9727 50.2077 99 3 0
1897355S10063 1898 51 SI MM NOT_NAMED 1897-12-26 18:00:00 NR -20.1365 50.2278 main 146 146 _____P________ -1 -20.1365 50.2278 99 3 168
1897355S10063 1898 51 SI MM NOT_NAMED 1897-12-26 21:00:00 NR -20.3144 50.2757 main 160 160 _____P________ -1 -20.3144 50.2757 99 4 162
1897355S10063 1898 51 SI MM NOT_NAMED 1897-12-27 00:00:00 NR -20.5132 50.3527 main 176 176 _____P________ -1 -20.5132 50.3527 99 5 158
1897355S10063 1898 51 SI MM NOT_NAMED 1897-12-27 03:00:00 NR -20.7395 50.4603 main 193 193 _____P________ -1 -20.7395 50.4603 99 5 155
1897355S10063 1898 51 SI MM NOT_NAMED 1897-12-27 06:00:00 NR -21.0000 50.6000 reunion main 217 217 _____O________ -1 -21.0000 50.6000 99 9.90000 6 155
1897355S10063 1898 51 SI MM NOT_NAMED 1897-12-27 09:00:00 NR -21.2993 50.7360 main 240 240 _____P________ -1 -21.2993 50.7360 99 7 156
1897355S10063 1898 51 SI MM NOT_NAMED 1897-12-27 12:00:00 NR -21.6306 50.9037 main 267 267 _____P________ -1 -21.6306 50.9037 99 8 154
1897355S10063 1898 51 SI MM NOT_NAMED 1897-12-27 15:00:00 NR -21.9905 51.1034 main 296 296 _____P________ -1 -21.9905 51.1034 99 9 152
1897355S10063 1898 51 SI MM NOT_NAMED 1897-12-27 18:00:00 NR -22.3756 51.3357 main 326 326 _____P________ -1 -22.3756 51.3357 99 9 150
1897355S10063 1898 51 SI MM NOT_NAMED 1897-12-27 21:00:00 NR -22.7825 51.6009 main 367 367 _____P________ -1 -22.7825 51.6009 99 10 148
1897355S10063 1898 51 SI MM NOT_NAMED 1897-12-28 00:00:00 NR -23.2078 51.8997 main 409 402 _____P________ -1 -23.2078 51.8997 99 10 146
1897355S10063 1898 51 SI MM NOT_NAMED 1897-12-28 03:00:00 NR -23.6481 52.2325 main 409 408 _____P________ -1 -23.6481 52.2325 99 11 144
1897355S10063 1898 51 SI MM NOT_NAMED 1897-12-28 06:00:00 NR -24.1000 52.6000 reunion main 417 417 _____O________ -1 -24.1000 52.6000 99 9.90000 11 144
1897355S10063 1898 51 SI MM NOT_NAMED 1897-12-28 09:00:00 NR -24.5376 52.9350 main 433 433 _____P________ -1 -24.5376 52.9350 99 11 144
1897355S10063 1898 51 SI MM NOT_NAMED 1897-12-28 12:00:00 NR -24.9895 53.3020 main 461 461 _____P________ -1 -24.9895 53.3020 99 12 143
1897355S10063 1898 51 SI MM NOT_NAMED 1897-12-28 15:00:00 NR -25.4538 53.7065 main 496 493 _____P________ -1 -25.4538 53.7065 99 12 141
1897355S10063 1898 51 SI MM NOT_NAMED 1897-12-28 18:00:00 NR -25.9289 54.1544 main 522 522 _____P________ -1 -25.9289 54.1544 99 13 138
1897355S10063 1898 51 SI MM NOT_NAMED 1897-12-28 21:00:00 NR -26.4129 54.6515 main 566 566 _____P________ -1 -26.4129 54.6515 99 14 136
1897355S10063 1898 51 SI MM NOT_NAMED 1897-12-29 00:00:00 NR -26.9041 55.2039 main 615 615 _____P________ -1 -26.9041 55.2039 99 14 134
1897355S10063 1898 51 SI MM NOT_NAMED 1897-12-29 03:00:00 NR -27.4005 55.8179 main 670 670 _____P________ -1 -27.4005 55.8179 99 15 131
1897355S10063 1898 51 SI MM NOT_NAMED 1897-12-29 06:00:00 NR -27.9000 56.5000 reunion main 731 731 _____O________ -1 -27.9000 56.5000 99 9.90000 17 128
1897355S10063 1898 51 SI MM NOT_NAMED 1897-12-29 09:00:00 NR -28.4604 57.3772 main 813 813 _____P________ -1 -28.4604 57.3772 99 20 125
1897355S10063 1898 51 SI MM NOT_NAMED 1897-12-29 12:00:00 NR -29.0305 58.3475 main 891 891 _____P________ -1 -29.0305 58.3475 99 21 123
1897355S10063 1898 51 SI MM NOT_NAMED 1897-12-29 15:00:00 NR -29.5937 59.3750 main 991 991 _____P________ -1 -29.5937 59.3750 99 21 121
1897355S10063 1898 51 SI MM NOT_NAMED 1897-12-29 18:00:00 NR -30.1345 60.4221 main 1083 1083 _____P________ -1 -30.1345 60.4221 99 21 120
1897355S10063 1898 51 SI MM NOT_NAMED 1897-12-29 21:00:00 NR -30.6382 61.4494 main 1179 1179 _____P________ -1 -30.6382 61.4494 99 20 119
1897355S10063 1898 51 SI MM NOT_NAMED 1897-12-30 00:00:00 NR -31.0915 62.4161 main 1273 1273 _____P________ -1 -31.0915 62.4161 99 18 118
1897355S10063 1898 51 SI MM NOT_NAMED 1897-12-30 03:00:00 NR -31.4825 63.2805 main 1349 1349 _____P________ -1 -31.4825 63.2805 99 15 118
1897355S10063 1898 51 SI MM NOT_NAMED 1897-12-30 06:00:00 NR -31.8000 64.0000 reunion main 1409 1409 _____O________ -1 -31.8000 64.0000 99 9.90000 12 117
1897355S10063 1898 51 SI MM NOT_NAMED 1897-12-30 09:00:00 NR -32.0376 64.5427 main 1451 1451 _____P________ -1 -32.0376 64.5427 99 9 117
1897355S10063 1898 51 SI MM NOT_NAMED 1897-12-30 12:00:00 NR -32.2037 64.9195 main 1489 1489 _____P________ -1 -32.2037 64.9195 99 6 118
1897355S10063 1898 51 SI MM NOT_NAMED 1897-12-30 15:00:00 NR -32.3099 65.1532 main 1513 1513 _____P________ -1 -32.3099 65.1532 99 3 119
1897355S10063 1898 51 SI MM NOT_NAMED 1897-12-30 18:00:00 NR -32.3668 65.2669 main 1527 1527 _____P________ -1 -32.3668 65.2669 99 1 123
1897355S10063 1898 51 SI MM NOT_NAMED 1897-12-30 21:00:00 NR -32.3844 65.2844 main 1527 1522 _____P________ -1 -32.3844 65.2844 99 0 261
1897355S10063 1898 51 SI MM NOT_NAMED 1897-12-31 00:00:00 NR -32.3727 65.2297 main 1522 1508 _____P________ -1 -32.3727 65.2297 99 1 288
1897355S10063 1898 51 SI MM NOT_NAMED 1897-12-31 03:00:00 NR -32.3413 65.1269 main 1508 1503 _____P________ -1 -32.3413 65.1269 99 2 291
1897355S10063 1898 51 SI MM NOT_NAMED 1897-12-31 06:00:00 NR -32.3000 65.0000 reunion main 1503 _____O________ -1 -32.3000 65.0000 99 9.90000 2 292

About IBTrACS Database

This database is a web-friendly format of International Best Track Archive for Climate Stewardship (IBTrACS), a global best track data archive curated by NOAA dating back to 1842.

Updated: 2021-11-26